Time;durP1;ratioP1;P1;durP2;ratioP2;P2;SDS_P1;SDS_P2;PMS_P1;PMS_P2;Temp;Humidity;BMP_temperature;BMP_pressure;BME280_temperature;BME280_humidity;BME280_pressure;Samples;Min_cycle;Max_cycle;Signal;HPM_P1;HPM_P2
2023/01/30 00:01:41;;;;;;;3.65;3.03;;;20.30;55.50;;;;;;4972609;28;87962;-81
2023/01/30 00:04:06;;;;;;;3.25;2.92;;;20.20;55.50;;;;;;4973213;28;88897;-81
2023/01/30 00:06:32;;;;;;;3.67;3.25;;;20.20;55.50;;;;;;4971787;28;88259;-81
2023/01/30 00:08:58;;;;;;;3.10;2.80;;;20.20;55.50;;;;;;4973432;28;87615;-81
2023/01/30 00:11:25;;;;;;;3.20;2.90;;;20.20;55.40;;;;;;4973315;28;87496;-81
2023/01/30 00:13:50;;;;;;;3.10;2.80;;;20.10;55.50;;;;;;4971809;28;88230;-81
2023/01/30 00:16:17;;;;;;;3.38;3.08;;;20.20;55.50;;;;;;4971175;28;87351;-82
2023/01/30 00:18:43;;;;;;;3.63;3.08;;;20.20;55.50;;;;;;4971536;28;87286;-80
2023/01/30 00:21:13;;;;;;;3.80;3.08;;;20.10;55.50;;;;;;4972130;28;88061;-81
2023/01/30 00:23:42;;;;;;;2.97;2.75;;;20.10;55.30;;;;;;4971800;28;87904;-81
2023/01/30 00:26:08;;;;;;;3.08;2.80;;;20.10;55.30;;;;;;4973818;28;87392;-81
2023/01/30 00:28:36;;;;;;;3.60;3.17;;;20.10;55.30;;;;;;4972127;28;88339;-81
2023/01/30 00:31:02;;;;;;;3.50;3.10;;;20.10;55.30;;;;;;4971448;28;89500;-80
2023/01/30 00:33:28;;;;;;;3.53;3.22;;;20.10;55.20;;;;;;4971916;28;89151;-81
2023/01/30 00:35:55;;;;;;;3.40;3.10;;;20.00;55.40;;;;;;4972422;28;87535;-81
2023/01/30 00:38:22;;;;;;;3.25;2.95;;;20.00;55.20;;;;;;4972979;28;88153;-81
2023/01/30 00:40:51;;;;;;;4.05;3.13;;;20.00;55.20;;;;;;4972391;28;88560;-81
2023/01/30 00:48:53;;;;;;;3.40;3.10;;;20.00;55.40;;;;;;4972215;28;86844;-81
2023/01/30 00:51:18;;;;;;;3.03;2.75;;;19.90;55.30;;;;;;4971955;28;88080;-80
2023/01/30 00:53:44;;;;;;;3.40;3.10;;;19.90;55.40;;;;;;4972216;28;88176;-81
2023/01/30 00:56:09;;;;;;;3.28;2.97;;;19.90;55.30;;;;;;4973237;28;88492;-81
2023/01/30 00:58:37;;;;;;;4.07;3.17;;;19.90;55.30;;;;;;4973746;28;87486;-81
2023/01/30 01:01:03;;;;;;;3.20;2.83;;;19.90;55.30;;;;;;4975140;28;89123;-81
2023/01/30 01:03:28;;;;;;;3.42;3.13;;;19.90;55.40;;;;;;4975305;28;87464;-81
2023/01/30 01:05:54;;;;;;;3.30;3.00;;;19.90;55.40;;;;;;4976807;28;87221;-80
2023/01/30 01:08:21;;;;;;;4.25;3.28;;;19.90;55.40;;;;;;4977003;28;87375;-81
2023/01/30 01:10:47;;;;;;;3.17;2.92;;;19.90;55.40;;;;;;4975799;28;87688;-81
2023/01/30 01:13:12;;;;;;;3.15;2.85;;;19.80;55.30;;;;;;4973695;28;87821;-80
2023/01/30 01:15:38;;;;;;;3.33;3.03;;;19.80;55.40;;;;;;4975265;28;87219;-81
2023/01/30 01:18:04;;;;;;;3.75;3.40;;;19.80;55.40;;;;;;4975114;28;94435;-81
2023/01/30 01:20:29;;;;;;;2.90;2.60;;;19.80;55.30;;;;;;4974469;28;91235;-80
2023/01/30 01:22:56;;;;;;;3.50;3.20;;;19.80;55.40;;;;;;4975857;28;89100;-80
2023/01/30 01:25:23;;;;;;;3.55;3.25;;;19.80;55.90;;;;;;4975107;28;87453;-81
2023/01/30 01:27:49;;;;;;;3.40;3.10;;;19.80;55.30;;;;;;4974003;28;87454;-81
2023/01/30 01:30:15;;;;;;;3.70;3.38;;;19.70;55.20;;;;;;4974676;28;88416;-81
2023/01/30 01:32:41;;;;;;;3.70;3.30;;;19.70;55.30;;;;;;4974791;28;89640;-81
2023/01/30 01:35:07;;;;;;;3.33;3.03;;;19.70;55.40;;;;;;4975735;28;87437;-80
2023/01/30 01:37:32;;;;;;;3.58;3.28;;;19.70;55.40;;;;;;4974081;28;87329;-81
2023/01/30 01:42:47;;;;;;;3.67;3.22;;;19.70;55.40;;;;;;4974390;28;87143;-81
2023/01/30 01:45:21;;;;;;;4.50;2.92;;;19.70;55.40;;;;;;4971514;28;88816;-80
2023/01/30 01:48:09;;;;;;;3.58;2.92;;;19.60;55.40;;;;;;4973307;28;87191;-80
2023/01/30 01:50:50;;;;;;;4.30;3.08;;;19.60;55.30;;;;;;4974832;28;88409;-80
2023/01/30 01:53:17;;;;;;;4.00;3.22;;;19.70;55.40;;;;;;4974984;28;88411;-81
2023/01/30 01:55:48;;;;;;;3.05;2.80;;;19.60;55.30;;;;;;4972888;28;87483;-81
2023/01/30 01:58:18;;;;;;;3.35;3.05;;;19.60;55.40;;;;;;4973342;28;87631;-81
2023/01/30 02:00:43;;;;;;;3.83;3.15;;;19.60;55.60;;;;;;4973334;28;89749;-81
2023/01/30 02:03:13;;;;;;;3.63;3.33;;;19.60;55.50;;;;;;4974665;28;87718;-82
2023/01/30 02:05:45;;;;;;;4.05;3.63;;;19.60;55.50;;;;;;4973816;28;87331;-81
2023/01/30 02:08:14;;;;;;;3.38;3.08;;;19.50;55.40;;;;;;4974523;28;87597;-80
2023/01/30 02:10:49;;;;;;;3.70;3.28;;;19.50;55.40;;;;;;4974178;28;89516;-80
2023/01/30 02:13:15;;;;;;;3.95;3.10;;;19.50;55.30;;;;;;4973684;28;88824;-80
2023/01/30 02:15:42;;;;;;;3.53;3.05;;;19.50;55.40;;;;;;4973131;28;87339;-81
2023/01/30 02:18:07;;;;;;;3.50;2.97;;;19.50;55.50;;;;;;4974468;28;87048;-80
2023/01/30 02:20:36;;;;;;;4.15;3.60;;;19.50;55.50;;;;;;4974492;28;88063;-81
2023/01/30 02:23:04;;;;;;;3.78;3.28;;;19.50;55.40;;;;;;4974279;28;88018;-81
2023/01/30 02:26:05;;;;;;;3.40;3.10;;;19.50;55.50;;;;;;4974333;28;86958;-81
2023/01/30 02:29:05;;;;;;;3.58;3.17;;;19.50;55.50;;;;;;4974780;28;87523;-81
2023/01/30 02:31:52;;;;;;;3.70;3.40;;;19.50;55.50;;;;;;4972947;28;88633;-80
2023/01/30 02:34:30;;;;;;;4.15;3.47;;;19.50;55.40;;;;;;4974817;28;88237;-80
2023/01/30 02:37:47;;;;;;;3.63;3.33;;;19.40;55.30;;;;;;4973872;28;88117;-81
2023/01/30 02:40:27;;;;;;;3.58;3.28;;;19.40;55.40;;;;;;4941054;28;87446;-81
2023/01/30 02:43:10;;;;;;;3.78;3.40;;;19.40;55.40;;;;;;4939976;28;88618;-81
2023/01/30 02:45:50;;;;;;;3.28;2.97;;;19.40;55.50;;;;;;4939411;28;89364;-81
2023/01/30 02:48:31;;;;;;;4.53;3.33;;;19.40;55.40;;;;;;4942204;28;87405;-80
2023/01/30 02:51:22;;;;;;;3.53;3.22;;;19.40;55.50;;;;;;4943545;28;87423;-81
2023/01/30 02:53:52;;;;;;;3.97;3.50;;;19.30;55.50;;;;;;4942576;28;87614;-81
2023/01/30 02:56:18;;;;;;;3.28;2.97;;;19.30;55.40;;;;;;4941084;28;86388;-80
2023/01/30 02:58:55;;;;;;;4.60;3.40;;;19.30;55.50;;;;;;4917033;28;87486;-81
2023/01/30 03:01:38;;;;;;;3.28;2.97;;;19.30;55.10;;;;;;4941290;28;87777;-80
2023/01/30 03:04:40;;;;;;;3.42;3.13;;;19.30;55.30;;;;;;4942299;28;89618;-80
2023/01/30 03:07:26;;;;;;;3.78;3.47;;;19.30;55.50;;;;;;4942255;28;88186;-81
2023/01/30 03:10:04;;;;;;;3.40;3.10;;;19.30;55.40;;;;;;4940077;28;87221;-80
2023/01/30 03:12:47;;;;;;;3.45;3.10;;;19.30;55.40;;;;;;4939232;28;87463;-80
2023/01/30 03:15:37;;;;;;;3.38;3.03;;;19.30;55.40;;;;;;4930564;28;90209;-81
2023/01/30 03:18:02;;;;;;;;;;;19.30;55.30;;;;;;4973135;28;88176;-81
2023/01/30 03:20:29;;;;;;;3.50;3.20;;;19.30;55.30;;;;;;4973432;28;87928;-80
2023/01/30 03:22:55;;;;;;;3.55;3.15;;;19.30;55.30;;;;;;4974126;28;95110;-80
2023/01/30 03:25:25;;;;;;;3.50;3.08;;;19.20;55.50;;;;;;4971554;28;87691;-80
2023/01/30 03:27:54;;;;;;;3.55;3.10;;;19.30;55.30;;;;;;4973415;28;87505;-80
2023/01/30 03:30:23;;;;;;;3.60;3.30;;;19.20;55.20;;;;;;4971472;28;88446;-80
2023/01/30 03:32:49;;;;;;;3.88;3.33;;;19.20;55.10;;;;;;4971032;28;87481;-81
2023/01/30 03:35:16;;;;;;;3.28;2.97;;;19.20;55.10;;;;;;4973178;28;88270;-80
2023/01/30 03:37:43;;;;;;;3.20;2.90;;;19.20;55.20;;;;;;4973562;28;88121;-80
2023/01/30 03:40:10;;;;;;;2.97;2.72;;;19.20;55.30;;;;;;4973011;28;87712;-80
2023/01/30 03:42:35;;;;;;;2.92;2.72;;;19.20;55.30;;;;;;4972626;28;87597;-81
2023/01/30 03:45:03;;;;;;;3.50;3.20;;;19.10;55.30;;;;;;4973488;28;88840;-81
2023/01/30 03:47:29;;;;;;;3.08;2.78;;;19.10;55.20;;;;;;4975247;28;88468;-80
2023/01/30 03:49:54;;;;;;;3.63;3.33;;;19.10;55.20;;;;;;4972153;28;87126;-81
2023/01/30 03:52:20;;;;;;;3.90;3.50;;;19.10;55.30;;;;;;4973537;28;87337;-81
2023/01/30 03:54:48;;;;;;;3.63;3.03;;;19.10;55.40;;;;;;4971573;28;88409;-80
2023/01/30 03:57:16;;;;;;;3.65;3.15;;;19.10;55.30;;;;;;4971053;28;88738;-81
2023/01/30 03:59:41;;;;;;;3.42;3.13;;;19.10;55.30;;;;;;4971646;28;86934;-80
2023/01/30 04:02:07;;;;;;;3.50;3.20;;;19.10;55.30;;;;;;4973740;28;87205;-80
2023/01/30 04:04:33;;;;;;;3.70;3.40;;;19.10;55.30;;;;;;4970274;28;88656;-80
2023/01/30 04:06:59;;;;;;;3.50;3.20;;;19.10;55.30;;;;;;4971877;28;88839;-80
2023/01/30 04:09:25;;;;;;;3.40;3.10;;;19.10;55.40;;;;;;4973454;28;87249;-80
2023/01/30 04:11:51;;;;;;;3.40;3.10;;;19.10;55.40;;;;;;4971710;28;87654;-81
2023/01/30 04:14:16;;;;;;;3.30;2.95;;;19.10;55.90;;;;;;4973426;28;87464;-80
2023/01/30 04:16:42;;;;;;;3.47;3.17;;;19.00;55.40;;;;;;4972403;28;87533;-80
2023/01/30 04:19:08;;;;;;;3.58;3.13;;;19.10;55.30;;;;;;4971624;28;88029;-80
2023/01/30 04:21:33;;;;;;;4.78;3.25;;;19.10;55.30;;;;;;4971453;28;87635;-80
2023/01/30 04:23:59;;;;;;;3.40;3.10;;;19.00;55.40;;;;;;4972338;28;88310;-80
2023/01/30 04:26:25;;;;;;;3.45;3.15;;;19.00;55.40;;;;;;4971237;28;88000;-81
2023/01/30 04:28:50;;;;;;;2.95;2.70;;;19.00;55.40;;;;;;4973181;28;86966;-80
2023/01/30 04:31:16;;;;;;;3.45;3.10;;;19.00;55.40;;;;;;4971668;28;88599;-80
2023/01/30 04:33:49;;;;;;;3.47;3.17;;;19.00;55.20;;;;;;4976111;28;87717;-80
2023/01/30 04:36:14;;;;;;;3.95;3.55;;;19.00;55.20;;;;;;4975436;28;88431;-81
2023/01/30 04:38:40;;;;;;;3.42;3.13;;;19.00;55.30;;;;;;4976571;28;87664;-80
2023/01/30 04:41:06;;;;;;;3.50;3.20;;;19.00;55.30;;;;;;4976494;28;87561;-81
2023/01/30 04:43:32;;;;;;;3.17;2.88;;;19.00;55.20;;;;;;4973848;28;89920;-80
2023/01/30 04:45:57;;;;;;;3.35;3.05;;;18.90;55.30;;;;;;4974485;28;88154;-81
2023/01/30 04:48:24;;;;;;;3.95;3.55;;;19.00;55.40;;;;;;4975782;28;87255;-80
2023/01/30 04:50:51;;;;;;;3.40;3.10;;;19.00;56.00;;;;;;4976087;28;87290;-80
2023/01/30 04:53:19;;;;;;;3.88;3.50;;;18.90;55.30;;;;;;4975556;28;88680;-80
2023/01/30 04:55:44;;;;;;;3.47;3.05;;;18.90;55.50;;;;;;4973494;28;87941;-80
2023/01/30 04:58:10;;;;;;;3.00;2.80;;;18.90;55.40;;;;;;4975146;28;87360;-80
2023/01/30 05:00:36;;;;;;;3.50;3.20;;;18.90;55.30;;;;;;4975776;28;87306;-80
2023/01/30 05:03:01;;;;;;;3.30;3.00;;;18.90;55.30;;;;;;4975595;28;87663;-81
2023/01/30 05:05:27;;;;;;;3.70;3.30;;;18.90;55.30;;;;;;4976655;28;88203;-80
2023/01/30 05:07:53;;;;;;;3.75;3.05;;;18.90;55.30;;;;;;4973437;28;88714;-81
2023/01/30 05:10:19;;;;;;;3.45;3.13;;;18.90;55.40;;;;;;4975012;28;87012;-79
2023/01/30 05:12:45;;;;;;;3.13;2.90;;;18.80;55.40;;;;;;4973265;28;88872;-80
2023/01/30 05:15:11;;;;;;;4.35;3.08;;;18.90;55.30;;;;;;4973409;28;88050;-80
2023/01/30 05:17:37;;;;;;;3.30;3.00;;;18.80;55.30;;;;;;4974471;28;87433;-80
2023/01/30 05:20:05;;;;;;;3.45;3.05;;;18.80;55.50;;;;;;4975990;28;87360;-81
2023/01/30 05:22:30;;;;;;;3.40;3.08;;;18.80;55.40;;;;;;4974267;28;87752;-81
2023/01/30 05:24:56;;;;;;;3.70;3.40;;;18.80;55.30;;;;;;4975233;28;87686;-81
2023/01/30 05:27:22;;;;;;;3.33;3.03;;;18.80;55.40;;;;;;4989170;28;87049;-81
2023/01/30 05:29:47;;;;;;;3.55;3.10;;;18.80;55.40;;;;;;4974703;28;87737;-80
2023/01/30 05:32:14;;;;;;;3.40;3.05;;;18.80;55.30;;;;;;4974295;28;89572;-80
2023/01/30 05:34:40;;;;;;;5.38;3.45;;;18.80;55.40;;;;;;4974054;28;88375;-80
2023/01/30 05:37:06;;;;;;;3.30;3.00;;;18.80;55.40;;;;;;4975617;28;86994;-80
2023/01/30 05:39:31;;;;;;;4.15;3.10;;;18.80;55.40;;;;;;4973678;28;87526;-80
2023/01/30 05:41:57;;;;;;;3.30;3.00;;;18.80;56.00;;;;;;4973609;28;88072;-80
2023/01/30 05:44:23;;;;;;;3.40;3.10;;;18.70;55.20;;;;;;4973646;28;88225;-80
2023/01/30 05:46:48;;;;;;;2.80;2.60;;;18.70;55.20;;;;;;4973567;28;87150;-81
2023/01/30 05:49:16;;;;;;;3.50;3.20;;;18.80;55.30;;;;;;4973733;28;87802;-80
2023/01/30 05:51:42;;;;;;;2.80;2.60;;;18.80;55.30;;;;;;4973853;28;88721;-81
2023/01/30 05:54:08;;;;;;;3.38;3.08;;;18.70;55.40;;;;;;4973710;28;88675;-81
2023/01/30 05:56:33;;;;;;;3.38;3.08;;;18.70;55.30;;;;;;4973832;28;88218;-81
2023/01/30 05:59:00;;;;;;;3.20;2.90;;;18.70;55.40;;;;;;4973757;28;87512;-80
2023/01/30 06:01:27;;;;;;;3.53;2.67;;;18.70;55.40;;;;;;4974069;28;88778;-80
2023/01/30 06:03:53;;;;;;;3.10;2.80;;;18.70;55.50;;;;;;4971361;28;90272;-81
2023/01/30 06:06:20;;;;;;;3.00;2.70;;;18.70;55.60;;;;;;4970751;28;87270;-81
2023/01/30 06:08:52;;;;;;;3.30;2.95;;;18.70;55.50;;;;;;4972091;28;87079;-81
2023/01/30 06:11:18;;;;;;;3.30;2.95;;;18.70;55.50;;;;;;4970954;28;88963;-81
2023/01/30 06:13:44;;;;;;;2.85;2.50;;;18.70;55.40;;;;;;4972049;28;87784;-81
2023/01/30 06:16:12;;;;;;;3.22;2.92;;;18.60;55.20;;;;;;4973935;28;87950;-81
2023/01/30 06:18:38;;;;;;;3.15;2.88;;;18.60;55.20;;;;;;4973790;28;88037;-80
2023/01/30 06:21:05;;;;;;;2.95;2.75;;;18.70;55.40;;;;;;4971993;28;88367;-81
2023/01/30 06:23:33;;;;;;;3.05;2.85;;;18.70;55.50;;;;;;4974164;28;88672;-80
2023/01/30 06:25:59;;;;;;;3.00;2.75;;;18.70;55.30;;;;;;4974437;28;87800;-81
2023/01/30 06:28:25;;;;;;;2.70;2.50;;;18.70;55.40;;;;;;4973317;28;88853;-80
2023/01/30 06:30:52;;;;;;;3.15;2.55;;;18.70;55.40;;;;;;4973449;28;88419;-81
2023/01/30 06:33:17;;;;;;;3.08;2.88;;;18.70;55.40;;;;;;4973706;28;88455;-80
2023/01/30 06:35:43;;;;;;;3.00;2.80;;;18.60;55.40;;;;;;4973539;28;87512;-81
2023/01/30 06:38:12;;;;;;;2.70;2.50;;;18.60;55.40;;;;;;4973692;28;87242;-81
2023/01/30 06:40:43;;;;;;;3.15;2.85;;;18.60;55.30;;;;;;4971888;28;88126;-81
2023/01/30 06:43:16;;;;;;;3.03;2.83;;;18.60;55.30;;;;;;4974004;28;87774;-81
2023/01/30 06:45:44;;;;;;;3.15;2.85;;;18.60;55.40;;;;;;4965581;28;88739;-81
2023/01/30 06:48:10;;;;;;;3.10;2.80;;;18.60;55.30;;;;;;4973113;28;88598;-82
2023/01/30 06:50:35;;;;;;;3.13;2.90;;;18.60;55.40;;;;;;4973435;28;88511;-81
2023/01/30 06:53:06;;;;;;;2.72;2.53;;;18.60;55.30;;;;;;4974524;28;88735;-81
2023/01/30 06:55:34;;;;;;;3.30;2.80;;;18.60;55.40;;;;;;4974553;28;87388;-81
2023/01/30 06:58:11;;;;;;;3.35;3.05;;;18.60;55.40;;;;;;4973269;28;87274;-81
2023/01/30 07:00:38;;;;;;;3.00;2.70;;;18.60;55.40;;;;;;4973500;28;88117;-81
2023/01/30 07:03:04;;;;;;;3.35;3.05;;;18.60;55.20;;;;;;4973783;28;88172;-81
2023/01/30 07:05:30;;;;;;;2.35;2.15;;;18.50;55.30;;;;;;4974822;28;87676;-81
2023/01/30 07:07:55;;;;;;;3.85;3.08;;;18.60;55.40;;;;;;4973726;28;86999;-81
2023/01/30 07:10:21;;;;;;;4.50;2.95;;;18.70;55.10;;;;;;4973034;28;89569;-81
2023/01/30 07:12:47;;;;;;;3.53;2.90;;;18.70;54.80;;;;;;4974766;28;88809;-81
2023/01/30 07:15:13;;;;;;;4.10;3.05;;;18.70;54.60;;;;;;4972806;28;87431;-81
2023/01/30 07:17:41;;;;;;;4.30;2.88;;;18.70;53.30;;;;;;4973586;28;87526;-81
2023/01/30 07:20:09;;;;;;;5.47;2.70;;;18.80;54.20;;;;;;4973357;28;88161;-80
2023/01/30 07:22:34;;;;;;;3.72;2.85;;;18.80;54.10;;;;;;4973478;28;89885;-81
2023/01/30 07:25:00;;;;;;;3.42;2.60;;;18.90;54.20;;;;;;4971771;28;87374;-80
2023/01/30 07:27:26;;;;;;;4.75;2.70;;;19.00;54.70;;;;;;4973455;28;86516;-82
2023/01/30 07:29:54;;;;;;;4.32;2.47;;;19.10;54.00;;;;;;4974895;28;88580;-82
2023/01/30 07:32:19;;;;;;;2.90;2.40;;;19.20;54.40;;;;;;4972497;28;87842;-81
2023/01/30 07:34:46;;;;;;;4.50;2.50;;;19.20;54.40;;;;;;4974431;28;88416;-81
2023/01/30 07:37:12;;;;;;;3.65;2.78;;;19.30;54.20;;;;;;4975354;28;87442;-81
2023/01/30 07:39:37;;;;;;;3.55;2.90;;;19.30;54.20;;;;;;4973759;28;88554;-81
2023/01/30 07:42:04;;;;;;;6.55;2.90;;;19.30;54.80;;;;;;4988113;28;89190;-82
2023/01/30 07:44:30;;;;;;;4.82;3.00;;;19.30;55.10;;;;;;4975499;28;87445;-81
2023/01/30 07:46:55;;;;;;;4.10;3.03;;;19.30;55.50;;;;;;4974186;28;91204;-82
2023/01/30 07:49:21;;;;;;;8.00;2.85;;;19.40;55.00;;;;;;4977520;28;88218;-81
2023/01/30 07:51:47;;;;;;;3.55;3.08;;;19.50;54.80;;;;;;4976185;28;89253;-81
2023/01/30 07:54:12;;;;;;;4.47;2.78;;;19.60;54.70;;;;;;4976436;28;87018;-82
2023/01/30 07:56:38;;;;;;;3.17;2.45;;;19.60;54.60;;;;;;4975235;28;87650;-83
2023/01/30 07:59:04;;;;;;;4.88;2.42;;;19.70;54.70;;;;;;4974151;28;89181;-83
2023/01/30 08:01:31;;;;;;;3.95;2.90;;;19.70;54.80;;;;;;4975680;28;88264;-83
2023/01/30 08:03:57;;;;;;;3.13;2.25;;;19.70;54.70;;;;;;4975387;28;87307;-83
2023/01/30 08:06:22;;;;;;;2.78;2.20;;;19.70;54.90;;;;;;4972226;28;90921;-83
2023/01/30 08:08:50;;;;;;;3.30;2.40;;;19.70;55.20;;;;;;4973638;28;91857;-83
2023/01/30 08:11:17;;;;;;;5.57;2.72;;;19.60;55.10;;;;;;4975678;28;87596;-82
2023/01/30 08:13:42;;;;;;;4.47;2.80;;;19.50;55.50;;;;;;4976262;28;87699;-83
2023/01/30 08:16:08;;;;;;;6.13;2.85;;;19.50;55.60;;;;;;4971415;28;88435;-83
2023/01/30 08:18:34;;;;;;;3.63;2.67;;;19.60;55.30;;;;;;4975657;28;89219;-82
2023/01/30 08:21:03;;;;;;;3.70;2.28;;;19.60;55.10;;;;;;4975927;28;88644;-82
2023/01/30 08:23:29;;;;;;;4.93;2.20;;;19.60;55.40;;;;;;4975894;28;88612;-82
2023/01/30 08:25:56;;;;;;;3.22;2.20;;;19.70;55.30;;;;;;4975972;28;91598;-84
2023/01/30 08:28:24;;;;;;;5.03;2.40;;;19.80;55.20;;;;;;4974284;28;88883;-83
2023/01/30 08:30:52;;;;;;;2.75;2.03;;;19.80;55.10;;;;;;4973250;28;87374;-83
2023/01/30 08:33:20;;;;;;;11.80;3.88;;;19.90;54.80;;;;;;4963916;28;87450;-84
2023/01/30 08:35:46;;;;;;;22.98;6.00;;;20.10;54.70;;;;;;4963012;28;88061;-83
2023/01/30 08:38:11;;;;;;;20.30;5.93;;;20.10;54.20;;;;;;4972871;28;87686;-84
2023/01/30 08:40:39;;;;;;;12.48;4.43;;;20.10;54.00;;;;;;4972444;28;88413;-83
2023/01/30 08:43:10;;;;;;;13.35;4.00;;;20.10;54.20;;;;;;4972895;28;87354;-83
2023/01/30 08:45:36;;;;;;;16.55;4.95;;;20.10;54.10;;;;;;4971799;28;87381;-83
2023/01/30 08:48:04;;;;;;;12.52;4.18;;;20.10;54.10;;;;;;4971709;28;89015;-83
2023/01/30 08:50:30;;;;;;;12.43;3.85;;;20.20;54.20;;;;;;4972515;28;88172;-82
2023/01/30 08:52:56;;;;;;;13.50;4.97;;;20.10;54.20;;;;;;4973803;28;87489;-82
2023/01/30 08:55:21;;;;;;;14.65;3.92;;;20.20;54.20;;;;;;4973479;28;87243;-83
2023/01/30 08:57:48;;;;;;;13.93;4.28;;;20.10;54.10;;;;;;4971434;28;88139;-83
2023/01/30 09:00:14;;;;;;;14.60;4.53;;;20.10;54.20;;;;;;4973025;28;87830;-83
2023/01/30 09:02:40;;;;;;;14.13;4.05;;;20.10;54.30;;;;;;4973395;28;87254;-82
2023/01/30 09:05:07;;;;;;;16.02;4.80;;;20.00;54.30;;;;;;4974525;28;87407;-83
2023/01/30 09:07:33;;;;;;;12.25;4.05;;;20.00;54.40;;;;;;4972859;28;90059;-83
2023/01/30 09:09:58;;;;;;;12.60;3.72;;;19.90;54.40;;;;;;4972620;28;88344;-83
2023/01/30 09:12:26;;;;;;;13.30;4.45;;;19.90;54.50;;;;;;4972784;28;87826;-83
2023/01/30 09:14:54;;;;;;;11.23;4.10;;;19.90;54.70;;;;;;4971570;28;87804;-82
2023/01/30 09:17:20;;;;;;;11.60;4.30;;;19.90;54.80;;;;;;4973568;28;88400;-83
2023/01/30 09:19:45;;;;;;;12.18;3.80;;;19.80;54.70;;;;;;4975134;28;87223;-82
2023/01/30 09:22:11;;;;;;;13.45;4.43;;;19.80;54.90;;;;;;4976690;28;87659;-83
2023/01/30 09:24:37;;;;;;;10.43;4.05;;;19.80;54.70;;;;;;4962388;28;88534;-82
2023/01/30 09:27:25;;;;;;;13.23;3.80;;;19.80;54.70;;;;;;4975869;28;88892;-83
2023/01/30 09:29:50;;;;;;;8.52;3.03;;;19.70;54.80;;;;;;4966116;28;87787;-83
2023/01/30 09:32:16;;;;;;;12.85;4.45;;;19.70;54.90;;;;;;4974149;28;87537;-83
2023/01/30 09:34:42;;;;;;;14.25;4.28;;;19.70;54.90;;;;;;4976112;28;87416;-83
2023/01/30 09:37:07;;;;;;;10.48;3.70;;;19.70;55.00;;;;;;4964838;28;89114;-82
2023/01/30 09:39:33;;;;;;;11.90;3.88;;;19.70;55.00;;;;;;4975653;28;89252;-83
2023/01/30 09:42:07;;;;;;;12.18;3.83;;;19.70;55.10;;;;;;4965095;28;87502;-82
2023/01/30 09:44:56;;;;;;;10.30;4.22;;;19.70;55.10;;;;;;4975795;28;87277;-83
2023/01/30 09:47:31;;;;;;;11.45;4.05;;;19.70;55.00;;;;;;4952163;28;87792;-84
2023/01/30 09:50:29;;;;;;;13.77;3.80;;;19.60;54.90;;;;;;4952106;28;91695;-83
2023/01/30 09:53:17;;;;;;;13.02;4.57;;;19.60;55.00;;;;;;4952833;28;87297;-83
2023/01/30 09:55:45;;;;;;;10.48;3.58;;;19.60;55.10;;;;;;4952386;28;86933;-83
2023/01/30 09:58:40;;;;;;;10.05;3.78;;;19.60;55.10;;;;;;4952260;28;87876;-82
2023/01/30 10:01:16;;;;;;;14.38;4.32;;;19.60;55.20;;;;;;4950796;28;87912;-83
2023/01/30 10:04:24;;;;;;;12.60;4.35;;;19.50;55.10;;;;;;4951052;28;88420;-83
2023/01/30 10:07:02;;;;;;;9.45;4.22;;;19.50;55.10;;;;;;4913279;28;87488;-83
2023/01/30 10:09:44;;;;;;;11.60;4.40;;;19.50;55.00;;;;;;4912018;28;89675;-83
2023/01/30 10:12:22;;;;;;;7.85;3.78;;;19.50;55.00;;;;;;4912141;28;87549;-83
2023/01/30 10:15:22;;;;;;;10.77;3.42;;;19.50;55.10;;;;;;4912532;28;88510;-83
2023/01/30 10:18:06;;;;;;;8.50;3.50;;;19.50;55.10;;;;;;4874188;28;87453;-83
2023/01/30 10:21:03;;;;;;;10.85;3.47;;;19.50;55.30;;;;;;4877334;28;88670;-83
2023/01/30 10:23:57;;;;;;;9.13;4.38;;;19.50;55.10;;;;;;4891999;28;91184;-83
2023/01/30 10:26:27;;;;;;;11.45;4.30;;;19.50;55.10;;;;;;4893379;28;87165;-83
2023/01/30 10:29:07;;;;;;;9.45;4.13;;;19.60;55.10;;;;;;4899236;28;87361;-84
2023/01/30 10:31:43;;;;;;;11.75;4.03;;;19.60;55.10;;;;;;4892756;28;89618;-83
2023/01/30 10:34:26;;;;;;;9.07;3.95;;;19.60;55.10;;;;;;4893168;28;88823;-83
2023/01/30 10:37:17;;;;;;;11.40;3.75;;;19.70;55.00;;;;;;4893497;28;87613;-83
2023/01/30 10:40:11;;;;;;;8.27;3.67;;;19.70;55.00;;;;;;4894142;28;87275;-82
2023/01/30 10:42:47;;;;;;;11.02;4.00;;;19.70;55.00;;;;;;4892757;28;88606;-83
2023/01/30 10:45:24;;;;;;;11.65;4.47;;;19.70;55.10;;;;;;4931042;28;87294;-83
2023/01/30 10:48:11;;;;;;;11.23;3.80;;;19.60;54.80;;;;;;4932547;28;87520;-83
2023/01/30 10:50:50;;;;;;;11.90;4.22;;;19.60;55.00;;;;;;4931293;28;86800;-82
2023/01/30 10:53:33;;;;;;;6.20;3.38;;;19.60;54.80;;;;;;4935085;28;88713;-83
2023/01/30 10:56:19;;;;;;;9.98;3.65;;;19.60;54.70;;;;;;4951888;28;91694;-83
2023/01/30 10:58:45;;;;;;;7.13;3.47;;;19.60;54.90;;;;;;4950465;28;88466;-83
2023/01/30 11:01:15;;;;;;;11.20;3.67;;;19.60;54.90;;;;;;4950956;28;87701;-83
2023/01/30 11:03:49;;;;;;;7.78;3.40;;;19.70;54.30;;;;;;4971978;28;87283;-83
2023/01/30 11:06:18;;;;;;;7.50;3.78;;;19.70;53.80;;;;;;4975750;28;87568;-83
2023/01/30 11:08:43;;;;;;;12.40;3.90;;;19.70;52.70;;;;;;4976263;28;87588;-83
2023/01/30 11:11:46;;;;;;;12.00;4.10;;;19.70;53.00;;;;;;4975141;28;87099;-84
2023/01/30 11:14:12;;;;;;;8.50;3.40;;;19.80;53.70;;;;;;4976180;28;92386;-84
2023/01/30 11:16:52;;;;;;;8.30;4.38;;;19.90;54.60;;;;;;4975509;28;87930;-84
2023/01/30 11:19:22;;;;;;;8.07;3.15;;;20.00;54.00;;;;;;4975972;28;87607;-83
2023/01/30 11:21:53;;;;;;;9.00;3.35;;;20.10;54.00;;;;;;4976634;28;87652;-83
2023/01/30 11:24:22;;;;;;;8.50;3.10;;;20.10;53.80;;;;;;4974503;28;89420;-83
2023/01/30 11:26:48;;;;;;;8.87;3.27;;;20.20;53.80;;;;;;4974350;28;90545;-83
2023/01/30 11:29:14;;;;;;;10.80;3.45;;;20.20;53.80;;;;;;4977037;28;87357;-82
2023/01/30 11:31:40;;;;;;;8.15;3.33;;;20.20;53.70;;;;;;4975834;28;87613;-84
2023/01/30 11:34:15;;;;;;;7.65;3.25;;;20.20;53.60;;;;;;4976705;28;88232;-84
2023/01/30 11:36:41;;;;;;;11.32;4.00;;;20.20;53.50;;;;;;4976048;28;87699;-85
2023/01/30 11:39:19;;;;;;;10.75;3.85;;;20.10;52.60;;;;;;4975074;28;87240;-81
2023/01/30 11:41:55;;;;;;;10.25;3.38;;;20.10;53.00;;;;;;4972851;28;86741;-83
2023/01/30 11:44:29;;;;;;;9.27;3.38;;;20.10;52.90;;;;;;4974736;28;89085;-83
2023/01/30 11:46:59;;;;;;;7.32;3.22;;;20.10;53.50;;;;;;4974552;28;88085;-84
2023/01/30 11:49:57;;;;;;;8.60;3.13;;;20.00;53.60;;;;;;4974281;28;88375;-84
2023/01/30 11:52:27;;;;;;;9.07;3.83;;;20.00;53.80;;;;;;4941164;28;87438;-84
2023/01/30 11:54:59;;;;;;;9.38;3.47;;;20.00;53.60;;;;;;4940418;28;89229;-83
2023/01/30 11:57:26;;;;;;;7.35;3.35;;;20.00;53.70;;;;;;4924173;28;92162;-83
2023/01/30 11:59:55;;;;;;;13.80;3.42;;;20.00;53.70;;;;;;4942351;28;89591;-83
2023/01/30 12:02:56;;;;;;;;;;;20.10;53.40;;;;;;4943209;28;87390;-84
2023/01/30 12:05:21;;;;;;;11.93;3.90;;;20.20;53.40;;;;;;4945294;28;92852;-82
2023/01/30 12:07:50;;;;;;;9.70;3.50;;;20.30;53.30;;;;;;4943526;28;87783;-83
2023/01/30 12:10:28;;;;;;;6.35;2.50;;;20.40;53.40;;;;;;4926601;28;87882;-82
2023/01/30 12:12:57;;;;;;;7.50;2.75;;;20.50;53.30;;;;;;4939412;28;87862;-82
2023/01/30 12:15:26;;;;;;;8.68;3.25;;;20.50;53.10;;;;;;4931980;28;89546;-83
2023/01/30 12:18:10;;;;;;;6.38;2.40;;;20.60;53.10;;;;;;4880317;28;88941;-82
2023/01/30 12:20:44;;;;;;;7.47;2.83;;;20.70;53.10;;;;;;4943421;28;87160;-83
2023/01/30 12:23:31;;;;;;;8.40;2.80;;;20.70;52.90;;;;;;4943340;28;87213;-82
2023/01/30 12:26:19;;;;;;;6.85;2.60;;;20.70;52.70;;;;;;4950882;28;95836;-83
2023/01/30 12:29:06;;;;;;;7.13;2.83;;;20.70;52.90;;;;;;4955525;28;88698;-83
2023/01/30 12:31:38;;;;;;;6.22;2.80;;;20.70;52.50;;;;;;4976339;28;87052;-83
2023/01/30 12:34:04;;;;;;;5.75;2.70;;;20.70;52.90;;;;;;4975695;28;87183;-83
2023/01/30 12:36:41;;;;;;;5.43;2.70;;;20.70;53.00;;;;;;4974815;28;87372;-83
2023/01/30 12:39:25;;;;;;;6.25;2.95;;;20.60;53.20;;;;;;4974431;28;87465;-82
2023/01/30 12:41:53;;;;;;;8.00;2.90;;;20.60;53.30;;;;;;4975525;28;88205;-83
2023/01/30 12:44:44;;;;;;;8.77;2.90;;;20.60;53.30;;;;;;4975671;28;87614;-82
2023/01/30 12:47:37;;;;;;;9.10;3.38;;;20.50;53.40;;;;;;4973066;28;92879;-82
2023/01/30 12:50:21;;;;;;;9.18;3.22;;;20.50;53.60;;;;;;4975590;28;92233;-83
2023/01/30 12:53:20;;;;;;;8.30;3.20;;;20.50;53.20;;;;;;4975948;28;87254;-83
2023/01/30 12:55:48;;;;;;;7.90;3.17;;;20.40;52.40;;;;;;4979549;28;87639;-83
2023/01/30 12:58:27;;;;;;;7.78;2.55;;;20.50;53.00;;;;;;4977622;28;93158;-82
2023/01/30 13:00:59;;;;;;;4.88;2.40;;;20.50;53.10;;;;;;4965425;28;93144;-81
2023/01/30 13:03:40;;;;;;;8.32;3.10;;;20.60;53.20;;;;;;4974401;28;99142;-81
2023/01/30 13:06:25;;;;;;;5.75;2.88;;;20.70;53.10;;;;;;4964923;28;92486;-82
2023/01/30 13:09:11;;;;;;;11.43;2.70;;;20.70;53.20;;;;;;4973367;28;94817;-81
2023/01/30 13:12:22;;;;;;;6.53;3.10;;;20.80;52.90;;;;;;4974362;28;94303;-82
2023/01/30 13:14:53;;;;;;;7.80;2.72;;;20.80;53.00;;;;;;4953334;28;92544;-81